Mito, Japan
Current Conditions -  °F | °C
As of 10:00 PM on Monday 20 Oct 2014 (Local Time) from RJAH Reporting Station
Light Rain Light Rain  
Wind Chill: 61°   Ceiling: 10000
Heat Index: 61°   Visibility: 3mi
Dew Point: 59°   Wind: 2mph
Humidity: 94%   Direction: 310°NW
Pressure: 30.15"   Gusts: NA
Location:  36.38°N, 140.47°E
Report Text: RJAH 201300Z 31002KT 5000 -RA BR FEW020 SCT050 OVC100 16/15 Q1021
Loading
Personal Weather Stations






























Interactive Weather Map
Tropical Storm Tracking
New forecast layout! Learn more

10-Day Weather Forecast

Advertisements
Track Severe Weather on mobile